Chachapoyas, Chachapoyas Airport (SPPY)

NameChachapoyas Airport
CityChachapoyas
CountryPeru
ICAOSPPY
IATACHH
Altitude2540 m
CoordinatesGoogle Map
Live Air TrafficLiveATC.net
METARSPPY 162000Z 12007KT 9999 SCT013 SCT025 17/11 Q1026 RMK PP000
2019-10-16 20:00:00 Wind: East-Southeast (120°) 3.6 m/s - Visibility: > 10000 m - Temperature: 17 °C - Dew point: 11 °C - Humidity: 68% - Pressure: 1026 hPa

Sorry, no flights used the airport in this database.